Time;durP1;ratioP1;P1;durP2;ratioP2;P2;SDS_P1;SDS_P2;PMS_P1;PMS_P2;Temp;Humidity;BMP_temperature;BMP_pressure;BME280_temperature;BME280_humidity;BME280_pressure;Samples;Min_cycle;Max_cycle;Signal;HPM_P1;HPM_P2
2022/04/04 00:00:48;;;;;;;;;;;;;;;2.81;100.00;100472.13;5097734;28;19930;-79
2022/04/04 00:03:14;;;;;;;;;;;;;;;2.86;100.00;100456.00;5097430;28;19958;-78
2022/04/04 00:05:39;;;;;;;;;;;;;;;2.99;100.00;100457.63;5097741;28;19919;-78
2022/04/04 00:08:05;;;;;;;;;;;;;;;2.94;100.00;100458.19;5097640;28;19924;-79
2022/04/04 00:10:31;;;;;;;;;;;;;;;2.93;100.00;100451.16;5097873;28;19927;-79
2022/04/04 00:12:56;;;;;;;;;;;;;;;2.84;100.00;100442.03;5097767;28;19927;-79
2022/04/04 00:15:21;;;;;;;;;;;;;;;2.95;100.00;100428.75;5098091;28;19916;-79
2022/04/04 00:17:46;;;;;;;;;;;;;;;2.92;100.00;100425.94;5097448;28;20014;-79
2022/04/04 00:20:12;;;;;;;;;;;;;;;3.00;100.00;100409.13;5097108;28;19923;-78
2022/04/04 00:22:37;;;;;;;;;;;;;;;2.93;100.00;100415.66;5098016;28;19923;-79
2022/04/04 00:25:03;;;;;;;;;;;;;;;2.90;100.00;100399.84;5113334;28;19916;-78
2022/04/04 00:27:29;;;;;;;;;;;;;;;2.88;100.00;100394.56;5114817;28;20333;-78
2022/04/04 00:29:54;;;;;;;;;;;;;;;2.85;100.00;100383.09;5097111;28;19920;-79
2022/04/04 00:32:19;;;;;;;;;;;;;;;2.90;100.00;100380.75;5095954;28;20307;-79
2022/04/04 00:34:46;;;;;;;;;;;;;;;2.87;100.00;100371.97;5097134;28;19960;-79
2022/04/04 00:37:12;;;;;;;;;;;;;;;2.86;100.00;100357.19;5097134;28;19916;-77
2022/04/04 00:39:37;;;;;;;;;;;;;;;2.88;100.00;100350.34;5106912;27;19931;-79
2022/04/04 00:42:02;;;;;;;;;;;;;;;2.92;100.00;100320.25;5116615;27;19915;-78
2022/04/04 00:44:28;;;;;;;;;;;;;;;3.07;100.00;100312.41;5135538;27;19915;-77
2022/04/04 00:46:53;;;;;;;;;;;;;;;3.08;100.00;100309.00;5135428;27;19912;-78
2022/04/04 00:49:18;;;;;;;;;;;;;;;3.07;100.00;100299.41;5117471;27;20366;-78
2022/04/04 00:51:44;;;;;;;;;;;;;;;3.16;100.00;100291.22;5116375;27;19919;-77
2022/04/04 00:54:10;;;;;;;;;;;;;;;3.19;100.00;100279.28;5116733;27;19927;-77
2022/04/04 00:56:37;;;;;;;;;;;;;;;3.41;100.00;100270.06;5117020;27;20402;-78
2022/04/04 00:59:03;;;;;;;;;;;;;;;3.43;100.00;100265.84;5110909;27;20383;-78
2022/04/04 01:01:29;;;;;;;;;;;;;;;3.51;100.00;100268.84;5116746;27;20259;-77
2022/04/04 01:03:55;;;;;;;;;;;;;;;3.68;100.00;100273.31;5116166;27;19967;-77
2022/04/04 01:06:21;;;;;;;;;;;;;;;3.61;100.00;100289.38;5116933;27;20686;-78
2022/04/04 01:08:46;;;;;;;;;;;;;;;3.52;100.00;100299.28;5116726;27;19915;-78
2022/04/04 01:11:12;;;;;;;;;;;;;;;3.48;100.00;100308.66;5115457;27;19920;-78
2022/04/04 01:13:43;;;;;;;;;;;;;;;3.59;100.00;100297.13;5114501;27;20335;-78
2022/04/04 01:16:08;;;;;;;;;;;;;;;3.56;100.00;100312.56;5133121;27;19919;-78
2022/04/04 01:18:34;;;;;;;;;;;;;;;3.61;100.00;100310.22;5115400;27;19922;-77
2022/04/04 01:20:59;;;;;;;;;;;;;;;3.67;100.00;100304.47;5114218;27;19912;-77
2022/04/04 01:23:29;;;;;;;;;;;;;;;3.56;100.00;100315.19;5115547;27;20431;-78
2022/04/04 01:25:54;;;;;;;;;;;;;;;3.73;100.00;100310.91;5116224;27;19919;-78
2022/04/04 01:28:20;;;;;;;;;;;;;;;3.72;100.00;100316.03;5116622;27;20367;-78
2022/04/04 01:30:51;;;;;;;;;;;;;;;3.78;100.00;100317.25;5115904;27;20313;-77
2022/04/04 01:33:17;;;;;;;;;;;;;;;3.82;100.00;100326.09;5116538;27;20016;-77
2022/04/04 01:35:43;;;;;;;;;;;;;;;3.74;100.00;100330.00;5116056;27;20325;-78
2022/04/04 01:38:08;;;;;;;;;;;;;;;3.68;100.00;100329.66;5116240;27;19923;-78
2022/04/04 01:40:33;;;;;;;;;;;;;;;3.84;100.00;100320.97;5098142;28;20006;-78
2022/04/04 01:42:59;;;;;;;;;;;;;;;3.82;100.00;100322.63;5095000;28;20633;-78
2022/04/04 01:48:08;;;;;;;;;;;;;;;3.95;100.00;100333.78;5093627;28;19928;-78
2022/04/04 01:50:34;;;;;;;;;;;;;;;3.92;100.00;100338.84;5075442;28;19917;-78
2022/04/04 01:55:44;;;;;;;;;;;;;;;3.89;100.00;100350.81;5114032;28;20370;-77
2022/04/04 01:58:10;;;;;;;;;;;;;;;3.85;100.00;100352.31;5095396;28;19915;-78
2022/04/04 02:00:35;;;;;;;;;;;;;;;3.84;100.00;100360.97;5095694;28;20287;-78
2022/04/04 02:03:01;;;;;;;;;;;;;;;3.80;100.00;100348.56;5090821;28;20429;-78
2022/04/04 02:05:26;;;;;;;;;;;;;;;3.74;100.00;100338.75;5096003;28;20314;-78
2022/04/04 02:07:51;;;;;;;;;;;;;;;3.73;100.00;100325.63;5095476;28;19916;-79
2022/04/04 02:10:17;;;;;;;;;;;;;;;3.78;100.00;100308.53;5095456;28;19912;-78
2022/04/04 02:12:42;;;;;;;;;;;;;;;3.85;100.00;100310.66;5095315;28;20427;-78
2022/04/04 02:15:09;;;;;;;;;;;;;;;3.85;100.00;100310.66;5078670;28;19920;-78
2022/04/04 02:17:35;;;;;;;;;;;;;;;3.81;100.00;100313.00;5095875;28;20029;-78
2022/04/04 02:20:00;;;;;;;;;;;;;;;3.83;100.00;100307.06;5095224;28;20002;-78
2022/04/04 02:22:25;;;;;;;;;;;;;;;3.78;100.00;100300.72;5095243;28;19920;-78
2022/04/04 02:24:51;;;;;;;;;;;;;;;3.83;100.00;100291.44;5093497;28;20363;-78
2022/04/04 02:27:18;;;;;;;;;;;;;;;3.84;100.00;100277.63;5111980;28;19974;-77
2022/04/04 02:29:43;;;;;;;;;;;;;;;3.90;100.00;100272.75;5095243;28;19919;-78
2022/04/04 02:32:09;;;;;;;;;;;;;;;3.97;100.00;100263.53;5094638;28;19951;-77
2022/04/04 02:34:34;;;;;;;;;;;;;;;3.99;100.00;100277.53;5093576;28;19920;-76
2022/04/04 02:36:59;;;;;;;;;;;;;;;4.00;100.00;100270.63;5093586;28;19920;-77
2022/04/04 02:39:25;;;;;;;;;;;;;;;4.03;100.00;100258.66;5101765;28;19942;-76
2022/04/04 02:41:50;;;;;;;;;;;;;;;3.95;100.00;100260.84;5115268;28;19930;-78
2022/04/04 02:44:16;;;;;;;;;;;;;;;3.94;100.00;100258.16;5096467;28;19916;-78
2022/04/04 02:46:41;;;;;;;;;;;;;;;3.99;100.00;100245.38;5094676;28;20408;-79
2022/04/04 02:49:07;;;;;;;;;;;;;;;3.99;100.00;100256.69;5113214;27;19919;-75
2022/04/04 02:51:33;;;;;;;;;;;;;;;3.94;100.00;100253.84;5114788;28;19965;-77
2022/04/04 02:53:58;;;;;;;;;;;;;;;3.94;100.00;100251.22;5098316;28;19960;-76
2022/04/04 02:56:29;;;;;;;;;;;;;;;3.93;100.00;100249.47;5098779;28;19920;-78
2022/04/04 02:58:56;;;;;;;;;;;;;;;3.90;100.00;100235.34;5135684;27;19927;-78
2022/04/04 03:01:22;;;;;;;;;;;;;;;3.92;100.00;100234.63;5117349;27;19916;-78
2022/04/04 03:03:47;;;;;;;;;;;;;;;3.88;100.00;100222.25;5118226;27;19919;-77
2022/04/04 03:06:13;;;;;;;;;;;;;;;3.95;100.00;100218.28;5099724;28;19927;-77
2022/04/04 03:08:38;;;;;;;;;;;;;;;3.94;100.00;100212.16;5086497;28;19924;-78
2022/04/04 03:11:03;;;;;;;;;;;;;;;3.99;100.00;100214.13;5079802;28;19943;-78
2022/04/04 03:13:29;;;;;;;;;;;;;;;4.04;100.00;100212.63;5080419;28;19924;-76
2022/04/04 03:15:54;;;;;;;;;;;;;;;4.05;100.00;100209.22;5097369;28;20011;-78
2022/04/04 03:18:20;;;;;;;;;;;;;;;4.02;100.00;100209.94;5098371;28;20023;-78
2022/04/04 03:20:45;;;;;;;;;;;;;;;4.05;100.00;100202.28;5117232;27;19927;-79
2022/04/04 03:23:10;;;;;;;;;;;;;;;4.07;100.00;100210.19;5099485;27;19920;-78
2022/04/04 03:25:36;;;;;;;;;;;;;;;4.10;100.00;100210.34;5116956;27;19915;-77
2022/04/04 03:28:01;;;;;;;;;;;;;;;4.16;100.00;100221.09;5097477;27;19920;-78
2022/04/04 03:30:27;;;;;;;;;;;;;;;4.17;100.00;100224.59;5125865;27;19919;-78
2022/04/04 03:32:55;;;;;;;;;;;;;;;4.20;100.00;100227.38;5117068;27;19937;-78
2022/04/04 03:35:21;;;;;;;;;;;;;;;4.23;100.00;100237.97;5100779;27;19923;-78
2022/04/04 03:37:48;;;;;;;;;;;;;;;4.21;100.00;100232.66;5101514;28;19916;-78
2022/04/04 03:40:13;;;;;;;;;;;;;;;4.20;100.00;100243.91;5116082;28;19920;-77
2022/04/04 03:42:40;;;;;;;;;;;;;;;4.17;100.00;100241.13;5116147;28;19927;-79
2022/04/04 03:45:06;;;;;;;;;;;;;;;4.17;100.00;100235.91;5097571;28;19923;-78
2022/04/04 03:47:31;;;;;;;;;;;;;;;4.18;100.00;100247.22;5103059;27;20366;-78
2022/04/04 03:49:59;;;;;;;;;;;;;;;4.22;100.00;100244.84;5118224;27;19916;-78
2022/04/04 03:52:24;;;;;;;;;;;;;;;4.21;100.00;100245.69;5103901;27;19919;-78
2022/04/04 03:54:49;;;;;;;;;;;;;;;4.21;100.00;100245.69;5117289;27;20314;-78
2022/04/04 03:57:15;;;;;;;;;;;;;;;4.23;100.00;100245.78;5117068;27;19919;-77
2022/04/04 03:59:40;;;;;;;;;;;;;;;4.22;100.00;100244.84;5112588;27;20279;-78
2022/04/04 04:02:06;;;;;;;;;;;;;;;4.22;100.00;100244.84;5115605;27;19922;-77
2022/04/04 04:04:33;;;;;;;;;;;;;;;4.30;100.00;100248.78;5132775;27;19923;-78
2022/04/04 04:06:58;;;;;;;;;;;;;;;4.32;100.00;100243.66;5096285;28;19923;-78
2022/04/04 04:09:23;;;;;;;;;;;;;;;4.30;100.00;100235.75;5116749;27;19915;-78
2022/04/04 04:11:49;;;;;;;;;;;;;;;4.34;100.00;100246.34;5085387;28;19924;-77
2022/04/04 04:14:16;;;;;;;;;;;;;;;4.34;100.00;100241.13;5118032;27;19915;-77
2022/04/04 04:16:41;;;;;;;;;;;;;;;4.44;100.00;100240.75;5107197;28;19916;-78
2022/04/04 04:20:19;;;;;;;;;;;;;;;4.46;100.00;100244.34;5114953;27;19926;-78
2022/04/04 04:21:53;;;;;;;;;;;;;;;4.42;100.00;100234.56;5134705;27;19930;-77
2022/04/04 04:24:18;;;;;;;;;;;;;;;4.44;100.00;100243.34;5096897;28;19926;-78
2022/04/04 04:26:43;;;;;;;;;;;;;;;4.41;100.00;100249.34;5107298;27;19916;-78
2022/04/04 04:29:09;;;;;;;;;;;;;;;4.38;100.00;100230.00;5116270;27;19934;-76
2022/04/04 04:31:34;;;;;;;;;;;;;;;4.38;100.00;100224.78;5103955;28;19915;-78
2022/04/04 04:34:03;;;;;;;;;;;;;;;4.38;100.00;100219.56;5104236;28;20004;-78
2022/04/04 04:36:28;;;;;;;;;;;;;;;4.41;100.00;100230.16;5100135;27;19923;-78
2022/04/04 04:38:53;;;;;;;;;;;;;;;4.44;100.00;100230.31;5116099;27;19919;-77
2022/04/04 04:41:18;;;;;;;;;;;;;;;4.49;100.00;100234.06;5116096;27;19930;-77
2022/04/04 04:43:44;;;;;;;;;;;;;;;4.54;100.00;100234.28;5100683;28;20366;-77
2022/04/04 04:46:09;;;;;;;;;;;;;;;4.53;100.00;100229.91;5103533;27;20292;-77
2022/04/04 04:48:34;;;;;;;;;;;;;;;4.58;100.00;100217.97;5135007;27;19916;-77
2022/04/04 04:51:00;;;;;;;;;;;;;;;4.61;100.00;100242.47;5080098;28;20376;-77
2022/04/04 04:53:26;;;;;;;;;;;;;;;4.61;100.00;100224.22;5091429;27;19930;-76
2022/04/04 04:55:51;;;;;;;;;;;;;;;4.72;100.00;100226.50;5103655;28;19915;-75
2022/04/04 04:58:16;;;;;;;;;;;;;;;4.76;100.00;100236.25;5100618;27;19926;-75
2022/04/04 05:00:42;;;;;;;;;;;;;;;4.78;100.00;100238.09;5102257;27;19920;-76
2022/04/04 05:03:25;;;;;;;;;;;;;;;4.77;100.00;100231.13;5099249;27;19934;-75
2022/04/04 05:05:50;;;;;;;;;;;;;;;4.81;100.00;100235.66;5112072;27;19919;-73
2022/04/04 05:08:16;;;;;;;;;;;;;;;4.81;100.00;100224.34;5110331;27;19919;-73
2022/04/04 05:10:41;;;;;;;;;;;;;;;4.76;100.00;100223.22;5112586;27;19919;-74
2022/04/04 05:13:07;;;;;;;;;;;;;;;4.76;100.00;100207.56;5096109;28;19926;-72
2022/04/04 05:15:33;;;;;;;;;;;;;;;4.71;100.00;100181.25;5095892;28;19919;-74
2022/04/04 05:17:58;;;;;;;;;;;;;;;4.78;100.00;100179.84;5104411;27;19934;-75
2022/04/04 05:20:23;;;;;;;;;;;;;;;4.80;100.00;100186.94;5098350;27;20434;-76
2022/04/04 05:22:48;;;;;;;;;;;;;;;4.81;100.00;100190.41;5102915;28;20014;-75
2022/04/04 05:25:14;;;;;;;;;;;;;;;4.84;100.00;100174.91;5108801;27;20332;-74
2022/04/04 05:27:39;;;;;;;;;;;;;;;4.84;100.00;100174.91;5107361;28;19961;-74
2022/04/04 05:30:05;;;;;;;;;;;;;;;4.87;100.00;100174.19;5094226;28;19916;-74
2022/04/04 05:32:31;;;;;;;;;;;;;;;4.95;100.00;100168.47;5094793;28;19938;-73
2022/04/04 05:34:58;;;;;;;;;;;;;;;4.98;100.00;100175.56;5093166;28;19920;-74
2022/04/04 05:37:24;;;;;;;;;;;;;;;4.94;100.00;100169.31;5075239;28;20352;-74
2022/04/04 05:39:50;;;;;;;;;;;;;;;4.90;100.00;100151.72;5106141;27;20055;-76
2022/04/04 05:42:16;;;;;;;;;;;;;;;4.94;100.00;100166.72;5114299;27;20435;-73
2022/04/04 05:44:42;;;;;;;;;;;;;;;4.96;100.00;100166.78;5115036;27;20363;-76
2022/04/04 05:47:11;;;;;;;;;;;;;;;4.95;100.00;100131.06;5113995;27;19923;-74
2022/04/04 05:49:36;;;;;;;;;;;;;;;4.96;100.00;100132.88;5113913;27;19916;-75
2022/04/04 05:52:02;;;;;;;;;;;;;;;4.99;100.00;100136.50;5113955;27;19984;-73
2022/04/04 05:54:28;;;;;;;;;;;;;;;5.02;100.00;100121.00;5113970;28;20375;-76
2022/04/04 05:56:53;;;;;;;;;;;;;;;5.03;100.00;100104.53;5114719;27;20415;-77
2022/04/04 05:59:18;;;;;;;;;;;;;;;5.05;100.00;100073.28;5115227;27;20010;-75
2022/04/04 06:01:44;;;;;;;;;;;;;;;5.06;100.00;100077.66;5113155;28;20015;-73
2022/04/04 06:04:09;;;;;;;;;;;;;;;5.04;100.00;100048.88;5104975;28;20268;-75
2022/04/04 06:06:35;;;;;;;;;;;;;;;4.99;100.00;100039.97;5110263;28;19919;-75
2022/04/04 06:09:00;;;;;;;;;;;;;;;4.98;100.00;100006.84;5112649;28;19915;-75
2022/04/04 06:11:25;;;;;;;;;;;;;;;4.98;100.00;99985.09;5148174;27;19952;-75
2022/04/04 06:13:51;;;;;;;;;;;;;;;4.98;100.00;99975.53;5132055;27;20226;-74
2022/04/04 06:16:17;;;;;;;;;;;;;;;4.91;100.00;99951.72;5113149;28;19911;-74
2022/04/04 06:18:43;;;;;;;;;;;;;;;4.87;100.00;99922.00;5096635;28;19927;-74
2022/04/04 06:21:08;;;;;;;;;;;;;;;4.86;100.00;99886.31;5113082;28;20329;-75
2022/04/04 06:23:33;;;;;;;;;;;;;;;4.82;100.00;99842.69;5112626;27;19915;-73
2022/04/04 06:26:00;;;;;;;;;;;;;;;4.80;100.00;99786.91;5113400;28;19968;-74
2022/04/04 06:28:27;;;;;;;;;;;;;;;4.81;100.00;99727.00;5113891;28;19953;-74
2022/04/04 06:30:53;;;;;;;;;;;;;;;4.80;100.00;99729.53;5115218;27;19915;-75
2022/04/04 06:33:20;;;;;;;;;;;;;;;4.79;100.00;99706.91;5117782;27;19969;-75
2022/04/04 06:35:47;;;;;;;;;;;;;;;4.81;100.00;99668.72;5117674;27;19915;-75
2022/04/04 06:38:13;;;;;;;;;;;;;;;4.79;100.00;99654.75;5117184;27;19915;-76
2022/04/04 06:40:38;;;;;;;;;;;;;;;4.81;100.00;99635.69;5099136;28;19927;-73
2022/04/04 06:43:03;;;;;;;;;;;;;;;4.86;100.00;99638.50;5115150;28;20018;-74
2022/04/04 06:45:28;;;;;;;;;;;;;;;4.82;100.00;99619.25;5097129;28;20433;-76
2022/04/04 06:47:54;;;;;;;;;;;;;;;4.76;100.00;99608.56;5096923;28;19911;-76
2022/04/04 06:50:19;;;;;;;;;;;;;;;4.72;100.00;99596.22;5115145;28;19946;-74
2022/04/04 06:52:44;;;;;;;;;;;;;;;4.75;100.00;99595.47;5114881;28;19915;-75
2022/04/04 06:55:11;;;;;;;;;;;;;;;4.74;100.00;99588.47;5114808;28;19923;-76
2022/04/04 06:57:36;;;;;;;;;;;;;;;4.76;100.00;99563.34;5114230;28;19927;-76
2022/04/04 07:00:02;;;;;;;;;;;;;;;4.78;100.00;99548.63;5096714;28;19915;-76
2022/04/04 07:02:27;;;;;;;;;;;;;;;4.79;100.00;99534.78;5114102;28;19915;-73
2022/04/04 07:04:53;;;;;;;;;;;;;;;4.85;100.00;99498.50;5113209;28;20401;-73
2022/04/04 07:07:20;;;;;;;;;;;;;;;4.91;100.00;99476.94;5079845;28;19919;-74
2022/04/04 07:09:46;;;;;;;;;;;;;;;4.95;100.00;99473.63;5096437;28;19977;-76
2022/04/04 07:12:11;;;;;;;;;;;;;;;4.95;100.00;99437.09;5113690;28;19959;-74
2022/04/04 07:14:36;;;;;;;;;;;;;;;4.90;100.00;99443.88;5096269;28;19916;-74
2022/04/04 07:17:02;;;;;;;;;;;;;;;4.91;100.00;99414.34;5114123;28;19951;-74
2022/04/04 07:19:33;;;;;;;;;;;;;;;4.79;100.00;99347.00;5096042;28;20362;-74
2022/04/04 07:21:58;;;;;;;;;;;;;;;4.76;100.00;99345.16;5095603;28;20047;-73
2022/04/04 07:24:23;;;;;;;;;;;;;;;4.76;100.00;99339.06;5096412;28;19961;-73
2022/04/04 07:26:49;;;;;;;;;;;;;;;4.71;100.00;99315.44;5095558;28;19970;-74
2022/04/04 07:29:14;;;;;;;;;;;;;;;4.75;100.00;99283.41;5114669;28;19916;-74
2022/04/04 07:31:40;;;;;;;;;;;;;;;4.74;100.00;99226.88;5096274;28;20032;-74
2022/04/04 07:34:06;;;;;;;;;;;;;;;4.75;100.00;99170.38;5113118;28;19945;-74
2022/04/04 07:36:31;;;;;;;;;;;;;;;4.74;100.00;99087.78;5095438;28;20294;-74
2022/04/04 07:38:56;;;;;;;;;;;;;;;4.73;100.00;99015.63;5095522;28;19934;-73
2022/04/04 07:41:22;;;;;;;;;;;;;;;4.80;100.00;98954.97;5108798;27;20018;-74
2022/04/04 07:43:47;;;;;;;;;;;;;;;4.80;100.00;98913.25;5116769;27;20383;-73
2022/04/04 07:46:13;;;;;;;;;;;;;;;4.73;100.00;98903.50;5115709;27;19919;-74
2022/04/04 07:48:40;;;;;;;;;;;;;;;4.79;100.00;98861.94;5114848;27;20647;-73
2022/04/04 07:51:06;;;;;;;;;;;;;;;4.74;100.00;98829.63;5134327;27;20361;-73
2022/04/04 07:53:31;;;;;;;;;;;;;;;4.78;100.00;98827.16;5134093;27;19956;-74
2022/04/04 07:55:56;;;;;;;;;;;;;;;4.75;100.00;98808.81;5115812;27;19923;-74
2022/04/04 07:58:22;;;;;;;;;;;;;;;4.63;100.00;98793.75;5115870;27;19968;-74
2022/04/04 08:00:47;;;;;;;;;;;;;;;4.61;100.00;98779.75;5134266;27;20443;-72
2022/04/04 08:03:13;;;;;;;;;;;;;;;4.64;100.00;98764.19;5133893;27;19968;-72
2022/04/04 08:05:38;;;;;;;;;;;;;;;4.63;100.00;98741.59;5116018;27;20371;-72
2022/04/04 08:08:03;;;;;;;;;;;;;;;4.68;100.00;98755.63;5132551;27;19965;-71
2022/04/04 08:10:29;;;;;;;;;;;;;;;4.71;100.00;98735.69;5115586;27;19920;-74
2022/04/04 08:12:54;;;;;;;;;;;;;;;4.80;100.00;98739.44;5115569;27;19915;-77
2022/04/04 08:15:20;;;;;;;;;;;;;;;4.81;100.00;98746.38;5134720;27;19922;-76
2022/04/04 08:17:45;;;;;;;;;;;;;;;4.75;100.00;98729.72;5136119;27;19923;-70
2022/04/04 08:20:11;;;;;;;;;;;;;;;4.77;100.00;98730.63;5154197;27;19915;-71
2022/04/04 08:22:40;;;;;;;;;;;;;;;4.78;100.00;98735.88;5135208;27;19957;-71
2022/04/04 08:25:06;;;;;;;;;;;;;;;4.75;100.00;98716.69;5135789;27;19927;-72
2022/04/04 08:27:31;;;;;;;;;;;;;;;4.79;100.00;98723.75;5135119;27;19943;-72
2022/04/04 08:29:56;;;;;;;;;;;;;;;4.78;100.00;98727.19;5114528;27;19933;-71
2022/04/04 08:32:21;;;;;;;;;;;;;;;4.80;100.00;98715.97;5115139;27;20000;-72
2022/04/04 08:34:47;;;;;;;;;;;;;;;4.83;100.00;98704.69;5115377;27;19922;-72
2022/04/04 08:37:12;;;;;;;;;;;;;;;4.78;100.00;98711.53;5114768;27;20355;-72
2022/04/04 08:39:37;;;;;;;;;;;;;;;4.78;100.00;98690.69;5114889;27;19919;-74
2022/04/04 08:42:03;;;;;;;;;;;;;;;4.84;100.00;98683.88;5114897;27;19919;-72
2022/04/04 08:44:29;;;;;;;;;;;;;;;4.93;100.00;98690.19;5114754;27;19919;-72
2022/04/04 08:46:54;;;;;;;;;;;;;;;4.94;100.00;98679.78;5114713;27;19915;-75
2022/04/04 08:49:20;;;;;;;;;;;;;;;4.96;100.00;98672.00;5114987;27;19912;-73
2022/04/04 08:51:47;;;;;;;;;;;;;;;4.92;100.00;98659.72;5114511;27;19916;-74
2022/04/04 08:54:12;;;;;;;;;;;;;;;4.92;100.00;98657.97;5113880;27;19915;-74
2022/04/04 08:56:37;;;;;;;;;;;;;;;4.93;100.00;98646.72;5132812;27;19920;-73
2022/04/04 08:59:03;;;;;;;;;;;;;;;4.95;100.00;98650.22;5113500;27;19915;-73
2022/04/04 09:01:28;;;;;;;;;;;;;;;4.95;100.00;98649.34;5114612;27;19958;-74
2022/04/04 09:04:00;;;;;;;;;;;;;;;4.96;100.00;98638.09;5114877;27;19915;-73
2022/04/04 09:06:29;;;;;;;;;;;;;;;5.01;100.00;98639.94;5114028;27;19927;-74
2022/04/04 09:08:56;;;;;;;;;;;;;;;5.03;100.00;98627.81;5113766;27;19919;-74
2022/04/04 09:11:21;;;;;;;;;;;;;;;5.05;100.00;98638.28;5113441;27;19970;-73
2022/04/04 09:14:01;;;;;;;;;;;;;;;5.07;100.00;98643.53;5113762;27;19955;-75
2022/04/04 09:16:27;;;;;;;;;;;;;;;5.10;100.00;98649.72;5114332;27;20371;-75
2022/04/04 09:18:52;;;;;;;;;;;;;;;5.10;100.00;98623.63;5113916;27;19922;-76
2022/04/04 09:21:17;;;;;;;;;;;;;;;5.19;100.00;98617.72;5114882;27;19965;-75
2022/04/04 09:23:45;;;;;;;;;;;;;;;5.36;100.00;98595.47;5114339;27;19977;-75
2022/04/04 09:26:34;;;;;;;;;;;;;;;5.43;100.00;98579.94;5113716;27;19942;-77
2022/04/04 09:29:20;;;;;;;;;;;;;;;5.46;100.00;98569.56;5103171;27;19919;-75
2022/04/04 09:31:57;;;;;;;;;;;;;;;5.43;100.00;98572.09;5131915;27;19945;-73
2022/04/04 09:34:23;;;;;;;;;;;;;;;5.45;100.00;98573.88;5113378;27;20328;-73
2022/04/04 09:36:48;;;;;;;;;;;;;;;5.56;100.00;98561.03;5114570;27;19915;-76
2022/04/04 09:39:14;;;;;;;;;;;;;;;5.55;100.00;98573.22;5113412;27;19919;-76
2022/04/04 09:41:39;;;;;;;;;;;;;;;5.53;100.00;98574.03;5114074;27;19923;-78
2022/04/04 09:44:06;;;;;;;;;;;;;;;5.53;100.00;98543.59;5113729;27;19960;-75
2022/04/04 09:46:32;;;;;;;;;;;;;;;5.58;100.00;98556.75;5113149;27;20398;-74
2022/04/04 09:49:07;;;;;;;;;;;;;;;5.54;100.00;98562.75;5113476;27;20035;-74
2022/04/04 09:51:44;;;;;;;;;;;;;;;5.54;100.00;98555.78;5132283;27;19919;-73
2022/04/04 09:54:11;;;;;;;;;;;;;;;5.52;100.00;98559.25;5113096;27;19923;-75
2022/04/04 09:56:37;;;;;;;;;;;;;;;5.52;100.00;98570.56;5117242;27;19920;-75
2022/04/04 09:59:05;;;;;;;;;;;;;;;5.49;100.00;98559.19;5123860;28;19930;-73
2022/04/04 10:01:31;;;;;;;;;;;;;;;5.48;100.00;98552.19;5125743;27;20165;-74
2022/04/04 10:04:01;;;;;;;;;;;;;;;5.53;100.00;98551.44;5123030;27;19926;-74
2022/04/04 10:06:28;;;;;;;;;;;;;;;5.55;100.00;98539.28;5121659;27;19915;-75
2022/04/04 10:08:56;;;;;;;;;;;;;;;5.55;100.00;98530.59;5120326;28;19951;-76
2022/04/04 10:11:22;;;;;;;;;;;;;;;5.57;100.00;98506.25;5100861;28;20068;-75
2022/04/04 10:13:48;;;;;;;;;;;;;;;5.65;100.00;98493.31;5122006;28;19920;-78
2022/04/04 10:16:13;;;;;;;;;;;;;;;5.70;100.00;98470.81;5105292;28;20010;-78
2022/04/04 10:18:42;;;;;;;;;;;;;;;5.67;100.00;98408.09;5109558;28;20394;-75
2022/04/04 10:21:08;;;;;;;;;;;;;;;5.69;100.00;98398.53;5094899;28;20049;-75
2022/04/04 10:23:36;;;;;;;;;;;;;;;5.68;100.00;98388.94;5094353;28;19939;-73
2022/04/04 10:26:02;;;;;;;;;;;;;;;5.78;100.00;98378.63;5094939;28;20007;-76
2022/04/04 10:28:32;;;;;;;;;;;;;;;5.80;100.00;98362.16;5097174;28;20812;-71
2022/04/04 10:30:59;;;;;;;;;;;;;;;5.78;100.00;98357.75;5113244;28;19928;-74
2022/04/04 10:33:24;;;;;;;;;;;;;;;5.73;100.00;98369.03;5108505;28;19923;-74
2022/04/04 10:35:59;;;;;;;;;;;;;;;5.74;100.00;98367.28;5113256;28;20375;-75
2022/04/04 10:38:29;;;;;;;;;;;;;;;5.80;100.00;98366.50;5114006;28;19982;-76
2022/04/04 10:40:55;;;;;;;;;;;;;;;5.82;100.00;98356.94;5113680;28;19950;-76
2022/04/04 10:43:21;;;;;;;;;;;;;;;5.84;100.00;98348.28;5113704;28;19969;-76
2022/04/04 10:45:50;;;;;;;;;;;;;;;5.87;100.00;98347.44;5113934;28;19927;-76
2022/04/04 10:48:17;;;;;;;;;;;;;;;5.81;100.00;98347.34;5130242;28;20345;-74
2022/04/04 10:50:43;;;;;;;;;;;;;;;5.81;100.00;98353.47;5131801;27;19930;-76
2022/04/04 10:53:08;;;;;;;;;;;;;;;5.86;100.00;98343.09;5131549;27;19915;-75
2022/04/04 10:55:36;;;;;;;;;;;;;;;5.87;100.00;98317.00;5132219;28;20014;-74
2022/04/04 10:58:12;;;;;;;;;;;;;;;5.91;100.00;98299.63;5112965;28;20366;-75
2022/04/04 11:00:58;;;;;;;;;;;;;;;5.93;100.00;98287.44;5113706;28;19915;-75
2022/04/04 11:03:35;;;;;;;;;;;;;;;6.00;100.00;98271.03;5113936;28;19911;-76
2022/04/04 11:09:15;;;;;;;;;;;;;;;6.06;100.00;97915.84;5130676;27;19977;-75
2022/04/04 11:11:49;;;;;;;;;;;;;;;6.02;100.00;97907.97;5113582;28;20017;-75
2022/04/04 11:20:04;;;;;;;;;;;;;;;;;;;;;
2022/04/04 11:22:52;;;;;;;;;;;;;;;6.08;100.00;97994.22;5134562;27;19926;-74
2022/04/04 11:25:19;;;;;;;;;;;;;;;6.16;100.00;98017.78;5101920;27;19923;-75
2022/04/04 11:27:50;;;;;;;;;;;;;;;6.25;100.00;98031.78;5134684;27;19919;-76
2022/04/04 11:30:20;;;;;;;;;;;;;;;6.24;100.00;98029.16;5113585;28;19942;-75
2022/04/04 11:32:49;;;;;;;;;;;;;;;6.36;100.00;98018.81;5113943;27;19915;-74
2022/04/04 11:35:27;;;;;;;;;;;;;;;6.52;100.00;98011.09;5115215;27;19926;-73
2022/04/04 11:37:56;;;;;;;;;;;;;;;6.42;100.00;98024.09;5116450;27;19912;-75
2022/04/04 11:40:29;;;;;;;;;;;;;;;6.43;100.00;98017.09;5117674;27;19996;-73
2022/04/04 11:45:44;;;;;;;;;;;;;;;6.55;100.00;97992.81;5096792;28;20380;-76
2022/04/04 11:48:19;;;;;;;;;;;;;;;6.60;100.00;98019.84;5113702;28;20428;-74
2022/04/04 11:56:23;;;;;;;;;;;;;;;6.73;100.00;98037.38;5055402;28;19920;-78
2022/04/04 11:58:51;;;;;;;;;;;;;;;6.75;100.00;98038.25;5075812;28;19916;-77
2022/04/04 12:01:16;;;;;;;;;;;;;;;6.77;100.00;98036.50;5075240;28;19969;-75
2022/04/04 12:03:49;;;;;;;;;;;;;;;6.75;100.00;98050.44;5092372;28;19916;-75
2022/04/04 12:06:14;;;;;;;;;;;;;;;6.76;100.00;98037.38;5075990;28;19920;-75
2022/04/04 12:08:43;;;;;;;;;;;;;;;6.78;100.00;98012.09;5075152;28;19924;-75
2022/04/04 12:11:09;;;;;;;;;;;;;;;6.83;100.00;97979.00;5074776;28;19938;-75
2022/04/04 12:13:49;;;;;;;;;;;;;;;6.89;100.00;97972.94;5074717;28;20387;-77
2022/04/04 12:16:15;;;;;;;;;;;;;;;6.86;100.00;97972.91;5074458;28;19916;-75
2022/04/04 12:18:42;;;;;;;;;;;;;;;6.89;100.00;97959.00;5075073;28;20436;-76
2022/04/04 12:21:07;;;;;;;;;;;;;;;6.95;100.00;97956.41;5073902;28;20014;-75
2022/04/04 12:26:22;;;;;;;;;;;;;;;7.01;100.00;97902.34;5093292;28;20247;-74
2022/04/04 12:28:48;;;;;;;;;;;;;;;7.00;96.52;97884.03;5072697;28;19916;-71
2022/04/04 12:31:15;;;;;;;;;;;;;;;6.98;91.46;97857.84;5074424;28;19920;-72
2022/04/04 12:33:41;;;;;;;;;;;;;;;7.03;86.16;97749.75;5057444;28;19924;-75
2022/04/04 12:36:07;;;;;;;;;;;;;;;7.04;81.30;97474.13;5092017;28;19916;-76
2022/04/04 12:38:37;;;;;;;;;;;;;;;6.98;80.09;97550.91;5074664;28;19916;-77
2022/04/04 12:41:07;;;;;;;;;;;;;;;6.96;79.36;97657.28;5074723;28;19927;-75
2022/04/04 12:43:34;;;;;;;;;;;;;;;6.99;77.97;97735.75;5073707;28;19916;-76
2022/04/04 12:45:59;;;;;;;;;;;;;;;6.92;76.45;97809.91;5074572;28;19927;-76
2022/04/04 12:48:32;;;;;;;;;;;;;;;6.94;75.81;97821.22;5075001;28;20284;-76
2022/04/04 12:50:57;;;;;;;;;;;;;;;7.01;75.08;97808.16;5074197;28;19927;-75
2022/04/04 12:53:22;;;;;;;;;;;;;;;6.99;74.33;97795.94;5074559;28;20391;-73
2022/04/04 12:56:06;;;;;;;;;;;;;;;7.03;73.78;97771.53;5075235;28;20011;-75
2022/04/04 12:58:32;;;;;;;;;;;;;;;7.06;73.36;97765.44;5073857;28;19916;-75
2022/04/04 13:00:57;;;;;;;;;;;;;;;7.05;72.89;97756.69;5074408;28;19926;-78
2022/04/04 13:03:23;;;;;;;;;;;;;;;7.09;72.51;97744.50;5073967;28;19938;-77
2022/04/04 13:05:51;;;;;;;;;;;;;;;7.08;72.12;97743.63;5092857;28;20425;-75